Time;durP1;ratioP1;P1;durP2;ratioP2;P2;SDS_P1;SDS_P2;PMS_P1;PMS_P2;Temp;Humidity;BMP_temperature;BMP_pressure;BME280_temperature;BME280_humidity;BME280_pressure;Samples;Min_cycle;Max_cycle;Signal;HPM_P1;HPM_P2
2022/08/20 00:01:21;;;;;;;19.67;15.50;;;;;;;;;;5135971;27;20484;-65
2022/08/20 00:03:48;;;;;;;17.93;16.03;;;;;;;;;;5135865;27;20442;-65
2022/08/20 00:06:18;;;;;;;21.30;15.90;;;;;;;;;;5135852;27;20473;-65
2022/08/20 00:08:45;;;;;;;19.17;15.90;;;;;;;;;;5135465;27;20447;-65
2022/08/20 00:11:14;;;;;;;20.43;15.60;;;;;;;;;;5135863;27;20817;-65
2022/08/20 00:13:43;;;;;;;15.93;14.23;;;;;;;;;;5135895;27;20440;-65
2022/08/20 00:16:11;;;;;;;17.80;14.13;;;;;;;;;;5136012;27;20544;-65
2022/08/20 00:18:40;;;;;;;17.17;15.37;;;;;;;;;;5135876;27;20497;-65
2022/08/20 00:21:08;;;;;;;19.77;16.47;;;;;;;;;;5136401;27;20745;-65
2022/08/20 00:23:37;;;;;;;19.23;15.07;;;;;;;;;;5135703;27;20433;-65
2022/08/20 00:26:04;;;;;;;16.37;14.70;;;;;;;;;;5135711;27;20807;-65
2022/08/20 00:28:31;;;;;;;16.47;14.70;;;;;;;;;;5135432;27;20907;-65
2022/08/20 00:31:00;;;;;;;16.20;14.60;;;;;;;;;;5135508;27;20437;-65
2022/08/20 00:33:27;;;;;;;19.57;15.37;;;;;;;;;;5135014;27;20516;-65
2022/08/20 00:35:56;;;;;;;22.40;15.57;;;;;;;;;;5135007;27;20918;-65
2022/08/20 00:38:24;;;;;;;19.10;16.10;;;;;;;;;;5134877;27;20437;-65
2022/08/20 00:40:52;;;;;;;19.43;16.13;;;;;;;;;;5135158;27;20519;-66
2022/08/20 00:43:27;;;;;;;22.97;17.73;;;;;;;;;;5134984;27;20472;-67
2022/08/20 00:45:56;;;;;;;27.37;18.77;;;;;;;;;;5135593;27;20554;-66
2022/08/20 00:48:25;;;;;;;24.90;20.83;;;;;;;;;;5134644;27;20526;-67
2022/08/20 00:51:02;;;;;;;25.00;18.90;;;;;;;;;;5135453;27;20459;-66
2022/08/20 00:53:29;;;;;;;18.90;15.30;;;;;;;;;;5134591;27;20968;-67
2022/08/20 00:55:57;;;;;;;15.90;13.30;;;;;;;;;;5134903;27;20435;-66
2022/08/20 00:58:26;;;;;;;19.00;13.03;;;;;;;;;;5134505;27;20995;-67
2022/08/20 01:00:53;;;;;;;17.57;13.83;;;;;;;;;;5134584;27;20431;-66
2022/08/20 01:03:20;;;;;;;14.77;13.20;;;;;;;;;;5134747;27;20853;-67
2022/08/20 01:05:49;;;;;;;15.63;13.07;;;;;;;;;;5133905;27;21000;-66
2022/08/20 01:08:18;;;;;;;17.10;13.07;;;;;;;;;;5134666;27;20435;-67
2022/08/20 01:10:47;;;;;;;18.73;13.90;;;;;;;;;;5134711;27;20515;-67
2022/08/20 01:13:16;;;;;;;19.50;14.10;;;;;;;;;;5134351;27;20471;-67
2022/08/20 01:15:44;;;;;;;20.23;14.23;;;;;;;;;;5134695;27;20466;-66
2022/08/20 01:18:14;;;;;;;17.70;13.40;;;;;;;;;;5134887;27;20435;-66
2022/08/20 01:20:43;;;;;;;21.70;14.17;;;;;;;;;;5134628;27;20437;-66
2022/08/20 01:23:29;;;;;;;19.97;15.17;;;;;;;;;;5134430;27;20430;-66
2022/08/20 01:26:01;;;;;;;16.73;13.10;;;;;;;;;;5134923;27;20500;-66
2022/08/20 01:28:32;;;;;;;19.70;13.70;;;;;;;;;;5134190;28;20429;-67
2022/08/20 01:30:59;;;;;;;13.87;11.10;;;;;;;;;;5134676;28;20935;-67
2022/08/20 01:33:27;;;;;;;15.13;11.80;;;;;;;;;;5134475;28;20542;-67
2022/08/20 01:35:54;;;;;;;16.30;13.70;;;;;;;;;;5134188;28;20436;-66
2022/08/20 01:38:21;;;;;;;17.67;13.43;;;;;;;;;;5134046;28;20474;-66
2022/08/20 01:41:09;;;;;;;15.37;12.80;;;;;;;;;;5135088;28;20528;-66
2022/08/20 01:43:37;;;;;;;16.00;14.20;;;;;;;;;;5134195;28;20443;-66
2022/08/20 01:46:05;;;;;;;15.63;12.47;;;;;;;;;;5133984;28;20515;-66
2022/08/20 01:48:32;;;;;;;13.57;11.60;;;;;;;;;;5134649;28;20560;-67
2022/08/20 01:51:03;;;;;;;16.37;12.10;;;;;;;;;;5134341;28;20439;-66
2022/08/20 01:53:32;;;;;;;13.50;11.07;;;;;;;;;;5134612;28;20424;-67
2022/08/20 01:56:00;;;;;;;15.40;12.03;;;;;;;;;;5134291;28;20439;-67
2022/08/20 01:58:29;;;;;;;15.50;12.30;;;;;;;;;;5134333;28;20527;-67
2022/08/20 02:00:56;;;;;;;16.80;13.67;;;;;;;;;;5134212;28;20488;-67
2022/08/20 02:03:23;;;;;;;19.00;14.97;;;;;;;;;;5134360;28;20426;-66
2022/08/20 02:05:52;;;;;;;22.53;15.30;;;;;;;;;;5133819;28;20800;-66
2022/08/20 02:08:20;;;;;;;18.47;14.47;;;;;;;;;;5134511;28;20443;-66
2022/08/20 02:10:47;;;;;;;20.40;14.67;;;;;;;;;;5134087;28;20427;-66
2022/08/20 02:13:15;;;;;;;17.77;14.80;;;;;;;;;;5134126;28;21711;-66
2022/08/20 02:15:43;;;;;;;19.00;15.83;;;;;;;;;;5134184;27;20467;-66
2022/08/20 02:18:12;;;;;;;20.40;14.93;;;;;;;;;;5137967;27;20518;-66
2022/08/20 02:20:40;;;;;;;19.23;16.00;;;;;;;;;;5137579;27;20927;-66
2022/08/20 02:23:08;;;;;;;25.07;16.47;;;;;;;;;;5137900;27;20423;-66
2022/08/20 02:25:38;;;;;;;21.97;17.20;;;;;;;;;;5137450;27;20429;-67
2022/08/20 02:28:07;;;;;;;21.53;17.33;;;;;;;;;;5137392;27;20465;-67
2022/08/20 02:30:36;;;;;;;21.03;16.00;;;;;;;;;;5137653;27;20481;-67
2022/08/20 02:33:06;;;;;;;20.70;16.80;;;;;;;;;;5137679;27;20511;-66
2022/08/20 02:35:34;;;;;;;24.00;17.23;;;;;;;;;;5137535;27;20435;-67
2022/08/20 02:38:01;;;;;;;25.07;18.17;;;;;;;;;;5138129;27;20433;-66
2022/08/20 02:40:30;;;;;;;27.20;18.63;;;;;;;;;;5137757;27;20436;-67
2022/08/20 02:42:57;;;;;;;29.43;17.40;;;;;;;;;;5137092;27;20467;-67
2022/08/20 02:45:24;;;;;;;26.20;18.53;;;;;;;;;;5137713;27;20814;-67
2022/08/20 02:47:54;;;;;;;20.90;18.30;;;;;;;;;;5137317;27;20561;-67
2022/08/20 02:50:24;;;;;;;21.83;17.03;;;;;;;;;;5137657;27;20434;-67
2022/08/20 02:52:51;;;;;;;24.83;18.87;;;;;;;;;;5137312;27;20436;-68
2022/08/20 02:55:19;;;;;;;23.10;18.90;;;;;;;;;;5137590;27;20438;-68
2022/08/20 02:57:46;;;;;;;24.83;20.10;;;;;;;;;;5137360;27;20442;-68
2022/08/20 03:00:18;;;;;;;24.73;18.23;;;;;;;;;;5136804;27;20438;-68
2022/08/20 03:02:45;;;;;;;23.50;17.60;;;;;;;;;;5137464;27;20419;-68
2022/08/20 03:05:13;;;;;;;21.53;17.73;;;;;;;;;;5137098;27;20435;-68
2022/08/20 03:07:45;;;;;;;20.53;17.57;;;;;;;;;;5137223;27;20471;-68
2022/08/20 03:10:13;;;;;;;22.77;17.00;;;;;;;;;;5136890;27;20442;-68
2022/08/20 03:12:40;;;;;;;23.40;17.63;;;;;;;;;;5136596;27;20442;-69
2022/08/20 03:15:09;;;;;;;21.60;17.43;;;;;;;;;;5136549;27;20457;-69
2022/08/20 03:17:36;;;;;;;23.90;17.30;;;;;;;;;;5136829;27;20518;-69
2022/08/20 03:20:05;;;;;;;23.20;18.30;;;;;;;;;;5137057;27;20430;-69
2022/08/20 03:22:32;;;;;;;24.73;18.63;;;;;;;;;;5136497;27;20428;-70
2022/08/20 03:25:01;;;;;;;22.63;18.47;;;;;;;;;;5136698;27;20486;-69
2022/08/20 03:27:28;;;;;;;22.63;18.77;;;;;;;;;;5136105;27;20563;-69
2022/08/20 03:29:56;;;;;;;22.17;18.53;;;;;;;;;;5135835;27;21832;-69
2022/08/20 03:32:23;;;;;;;22.33;17.50;;;;;;;;;;5135882;27;20535;-69
2022/08/20 03:34:50;;;;;;;22.53;17.67;;;;;;;;;;5135777;27;20873;-69
2022/08/20 03:37:17;;;;;;;20.20;16.70;;;;;;;;;;5135345;27;20436;-70
2022/08/20 03:39:45;;;;;;;20.43;18.00;;;;;;;;;;5136311;27;20445;-70
2022/08/20 03:42:13;;;;;;;17.90;15.93;;;;;;;;;;5136009;27;20435;-69
2022/08/20 03:44:40;;;;;;;21.50;18.43;;;;;;;;;;5136004;27;20440;-69
2022/08/20 03:47:08;;;;;;;19.47;16.97;;;;;;;;;;5135714;27;20472;-69
2022/08/20 03:49:35;;;;;;;18.03;16.17;;;;;;;;;;5135634;27;20437;-69
2022/08/20 03:52:03;;;;;;;20.90;18.07;;;;;;;;;;5135700;27;20442;-68
2022/08/20 03:54:30;;;;;;;20.80;16.50;;;;;;;;;;5135762;27;20434;-68
2022/08/20 03:56:57;;;;;;;19.87;17.63;;;;;;;;;;5135676;27;20436;-68
2022/08/20 03:59:26;;;;;;;19.77;17.67;;;;;;;;;;5135756;27;20516;-68
2022/08/20 04:01:53;;;;;;;22.87;18.43;;;;;;;;;;5135192;27;20435;-68
2022/08/20 04:04:20;;;;;;;22.63;17.80;;;;;;;;;;5135783;27;20843;-68
2022/08/20 04:06:48;;;;;;;23.97;19.60;;;;;;;;;;5135434;27;20904;-68
2022/08/20 04:09:15;;;;;;;21.67;18.47;;;;;;;;;;5135721;27;20434;-68
2022/08/20 04:11:43;;;;;;;20.43;18.23;;;;;;;;;;5135250;27;20427;-68
2022/08/20 04:14:11;;;;;;;22.63;18.90;;;;;;;;;;5134833;27;21001;-68
2022/08/20 04:16:40;;;;;;;21.57;18.27;;;;;;;;;;5135378;27;20431;-68
2022/08/20 04:19:07;;;;;;;23.73;18.50;;;;;;;;;;5135499;27;20466;-68
2022/08/20 04:21:35;;;;;;;23.20;20.67;;;;;;;;;;5134998;27;20523;-68
2022/08/20 04:24:03;;;;;;;25.93;22.43;;;;;;;;;;5135201;27;20483;-68
2022/08/20 04:26:31;;;;;;;16.47;14.67;;;;;;;;;;5135692;27;20486;-68
2022/08/20 04:28:58;;;;;;;18.03;16.23;;;;;;;;;;5135422;27;20475;-68
2022/08/20 04:31:32;;;;;;;19.17;16.00;;;;;;;;;;5135345;27;20428;-69
2022/08/20 04:34:00;;;;;;;18.30;15.77;;;;;;;;;;5135943;27;20421;-68
2022/08/20 04:36:28;;;;;;;17.87;16.00;;;;;;;;;;5134880;27;20434;-68
2022/08/20 04:38:55;;;;;;;19.60;17.60;;;;;;;;;;5134268;27;20494;-68
2022/08/20 04:41:23;;;;;;;22.70;18.33;;;;;;;;;;5134508;27;20433;-68
2022/08/20 04:43:50;;;;;;;20.40;18.33;;;;;;;;;;5134804;27;20558;-68
2022/08/20 04:46:18;;;;;;;23.33;18.03;;;;;;;;;;5134766;27;20968;-68
2022/08/20 04:48:45;;;;;;;23.97;18.27;;;;;;;;;;5135468;27;20520;-68
2022/08/20 04:51:14;;;;;;;21.33;18.57;;;;;;;;;;5134665;27;20515;-68
2022/08/20 04:53:43;;;;;;;24.27;18.73;;;;;;;;;;5135117;27;20431;-68
2022/08/20 04:56:11;;;;;;;20.07;17.30;;;;;;;;;;5134910;27;20438;-68
2022/08/20 04:58:39;;;;;;;21.43;17.97;;;;;;;;;;5135430;27;20440;-68
2022/08/20 05:01:07;;;;;;;24.40;20.80;;;;;;;;;;5134503;27;20438;-68
2022/08/20 05:03:36;;;;;;;21.43;18.80;;;;;;;;;;5134592;27;20934;-68
2022/08/20 05:06:04;;;;;;;23.90;19.53;;;;;;;;;;5134805;27;20432;-68
2022/08/20 05:08:34;;;;;;;23.70;18.70;;;;;;;;;;5135181;27;20467;-68
2022/08/20 05:11:01;;;;;;;22.97;17.60;;;;;;;;;;5134637;27;20440;-68
2022/08/20 05:13:29;;;;;;;26.10;19.90;;;;;;;;;;5134585;27;20469;-68
2022/08/20 05:16:03;;;;;;;26.40;20.47;;;;;;;;;;5134684;27;20473;-68
2022/08/20 05:18:31;;;;;;;25.03;20.40;;;;;;;;;;5134510;27;20457;-68
2022/08/20 05:21:04;;;;;;;24.13;20.00;;;;;;;;;;5134383;27;20446;-67
2022/08/20 05:23:31;;;;;;;29.07;20.80;;;;;;;;;;5134356;27;20427;-67
2022/08/20 05:26:00;;;;;;;29.80;21.57;;;;;;;;;;5134314;27;20912;-67
2022/08/20 05:28:31;;;;;;;25.90;20.67;;;;;;;;;;5134439;27;20546;-68
2022/08/20 05:30:59;;;;;;;23.50;19.87;;;;;;;;;;5134970;27;20979;-67
2022/08/20 05:33:27;;;;;;;28.87;21.67;;;;;;;;;;5134485;28;20435;-67
2022/08/20 05:35:55;;;;;;;31.83;20.80;;;;;;;;;;5134749;28;20923;-67
2022/08/20 05:38:23;;;;;;;28.70;22.10;;;;;;;;;;5133107;28;20436;-68
2022/08/20 05:40:50;;;;;;;27.20;21.07;;;;;;;;;;5133771;28;20436;-67
2022/08/20 05:43:19;;;;;;;28.73;21.97;;;;;;;;;;5133831;28;20442;-67
2022/08/20 05:45:51;;;;;;;23.57;20.37;;;;;;;;;;5134403;28;20825;-67
2022/08/20 05:48:19;;;;;;;28.27;20.70;;;;;;;;;;5134323;28;20471;-67
2022/08/20 05:50:49;;;;;;;25.10;21.00;;;;;;;;;;5135977;27;20443;-67
2022/08/20 05:53:17;;;;;;;26.83;20.97;;;;;;;;;;5138794;27;20430;-68
2022/08/20 05:55:44;;;;;;;28.07;20.50;;;;;;;;;;5138486;27;20466;-67
2022/08/20 05:58:15;;;;;;;25.30;20.87;;;;;;;;;;5137946;27;20514;-68
2022/08/20 06:00:44;;;;;;;27.50;21.47;;;;;;;;;;5138089;27;20447;-68
2022/08/20 06:05:56;;;;;;;24.90;20.87;;;;;;;;;;5138260;27;20395;-67
2022/08/20 06:08:23;;;;;;;24.53;19.40;;;;;;;;;;5137798;27;20475;-68
2022/08/20 06:10:51;;;;;;;23.87;19.67;;;;;;;;;;5138600;27;20429;-68
2022/08/20 06:13:18;;;;;;;24.70;19.50;;;;;;;;;;5137651;27;20983;-67
2022/08/20 06:15:47;;;;;;;23.07;18.50;;;;;;;;;;5138125;27;20553;-67
2022/08/20 06:18:14;;;;;;;23.20;19.90;;;;;;;;;;5138308;27;20532;-67
2022/08/20 06:20:42;;;;;;;27.10;20.23;;;;;;;;;;5137669;27;20526;-67
2022/08/20 06:23:09;;;;;;;25.90;19.97;;;;;;;;;;5137816;27;20438;-67
2022/08/20 06:25:37;;;;;;;28.03;21.40;;;;;;;;;;5137864;27;20431;-67
2022/08/20 06:28:05;;;;;;;28.00;20.87;;;;;;;;;;5137293;27;20955;-67
2022/08/20 06:30:32;;;;;;;28.93;22.13;;;;;;;;;;5137983;27;20515;-67
2022/08/20 06:33:01;;;;;;;39.53;23.90;;;;;;;;;;5137943;27;20781;-67
2022/08/20 06:35:28;;;;;;;48.13;25.63;;;;;;;;;;5137721;27;20841;-67
2022/08/20 06:37:59;;;;;;;28.63;21.13;;;;;;;;;;5137317;27;20440;-67
2022/08/20 06:40:27;;;;;;;24.03;21.37;;;;;;;;;;5137978;27;20463;-67
2022/08/20 06:42:55;;;;;;;25.60;22.70;;;;;;;;;;5137300;27;20509;-67
2022/08/20 06:45:23;;;;;;;25.43;20.50;;;;;;;;;;5137171;27;20468;-66
2022/08/20 06:47:51;;;;;;;26.47;21.83;;;;;;;;;;5137258;27;20461;-67
2022/08/20 06:50:22;;;;;;;28.90;20.83;;;;;;;;;;5137412;27;20450;-67
2022/08/20 06:52:49;;;;;;;32.90;23.97;;;;;;;;;;5137148;27;20885;-67
2022/08/20 06:55:17;;;;;;;26.50;21.10;;;;;;;;;;5137496;27;20431;-67
2022/08/20 06:57:46;;;;;;;29.77;23.00;;;;;;;;;;5137316;27;20455;-67
2022/08/20 07:00:16;;;;;;;26.00;21.67;;;;;;;;;;5136877;27;20467;-67
2022/08/20 07:02:43;;;;;;;28.20;21.63;;;;;;;;;;5135834;27;20426;-67
2022/08/20 07:05:11;;;;;;;23.70;21.20;;;;;;;;;;5137250;27;20515;-67
2022/08/20 07:07:40;;;;;;;26.53;20.60;;;;;;;;;;5136968;27;20480;-67
2022/08/20 07:10:08;;;;;;;25.60;18.77;;;;;;;;;;5136303;27;20468;-67
2022/08/20 07:12:35;;;;;;;31.73;21.00;;;;;;;;;;5135892;27;20433;-67
2022/08/20 07:15:03;;;;;;;20.80;18.57;;;;;;;;;;5136541;27;20465;-67
2022/08/20 07:17:30;;;;;;;24.97;19.00;;;;;;;;;;5136288;27;20527;-68
2022/08/20 07:19:57;;;;;;;32.13;18.20;;;;;;;;;;5136151;27;20527;-67
2022/08/20 07:22:25;;;;;;;30.47;17.80;;;;;;;;;;5136383;27;20511;-66
2022/08/20 07:24:53;;;;;;;17.93;16.03;;;;;;;;;;5136452;27;20437;-66
2022/08/20 07:27:22;;;;;;;19.23;17.23;;;;;;;;;;5136268;27;20847;-66
2022/08/20 07:32:35;;;;;;;18.73;14.53;;;;;;;;;;5136501;27;20747;-66
2022/08/20 07:35:03;;;;;;;17.77;15.93;;;;;;;;;;5136501;27;20446;-66
2022/08/20 07:37:30;;;;;;;16.40;14.77;;;;;;;;;;5136167;27;20446;-66
2022/08/20 07:40:00;;;;;;;16.23;14.53;;;;;;;;;;5136268;27;20583;-66
2022/08/20 07:42:28;;;;;;;16.40;14.17;;;;;;;;;;5136598;27;20771;-66
2022/08/20 07:44:55;;;;;;;15.77;14.17;;;;;;;;;;5135964;27;20474;-66
2022/08/20 07:47:25;;;;;;;18.07;16.17;;;;;;;;;;5135891;27;20445;-66
2022/08/20 07:49:52;;;;;;;18.10;16.27;;;;;;;;;;5135791;27;20565;-66
2022/08/20 07:52:20;;;;;;;23.47;16.23;;;;;;;;;;5136167;27;20488;-66
2022/08/20 07:54:47;;;;;;;16.40;14.73;;;;;;;;;;5135681;27;20493;-65
2022/08/20 07:57:17;;;;;;;17.07;15.27;;;;;;;;;;5135608;27;20519;-66
2022/08/20 07:59:45;;;;;;;17.27;15.57;;;;;;;;;;5135812;27;20440;-66
2022/08/20 08:02:12;;;;;;;15.80;14.27;;;;;;;;;;5135951;27;20889;-66
2022/08/20 08:04:39;;;;;;;15.40;13.90;;;;;;;;;;5135603;27;20433;-66
2022/08/20 08:07:07;;;;;;;17.60;12.67;;;;;;;;;;5135584;27;20430;-67
2022/08/20 08:09:35;;;;;;;14.10;12.70;;;;;;;;;;5135205;27;20553;-67
2022/08/20 08:12:03;;;;;;;18.17;11.40;;;;;;;;;;5135538;27;20440;-66
2022/08/20 08:14:34;;;;;;;21.97;10.97;;;;;;;;;;5135684;27;20476;-66
2022/08/20 08:17:03;;;;;;;13.73;11.10;;;;;;;;;;5135902;27;20422;-66
2022/08/20 08:19:33;;;;;;;11.40;9.90;;;;;;;;;;5135414;27;20528;-65
2022/08/20 08:22:00;;;;;;;11.63;10.43;;;;;;;;;;5136523;27;20425;-65
2022/08/20 08:24:27;;;;;;;12.30;11.10;;;;;;;;;;5135503;27;20528;-66
2022/08/20 08:26:54;;;;;;;11.63;10.20;;;;;;;;;;5135517;27;20451;-66
2022/08/20 08:29:22;;;;;;;9.70;8.80;;;;;;;;;;5135327;27;20469;-66
2022/08/20 08:31:50;;;;;;;11.40;10.20;;;;;;;;;;5135427;27;20493;-65
2022/08/20 08:34:18;;;;;;;13.00;9.40;;;;;;;;;;5135693;27;20516;-66
2022/08/20 08:36:45;;;;;;;15.73;9.97;;;;;;;;;;5135371;27;20439;-66
2022/08/20 08:39:12;;;;;;;11.03;8.20;;;;;;;;;;5135408;27;20434;-66
2022/08/20 08:41:48;;;;;;;9.20;8.33;;;;;;;;;;5135204;27;20474;-65
2022/08/20 08:44:22;;;;;;;8.30;7.70;;;;;;;;;;5135529;27;20437;-66
2022/08/20 08:46:52;;;;;;;9.53;8.63;;;;;;;;;;5135241;27;20421;-65
2022/08/20 08:49:21;;;;;;;10.70;9.70;;;;;;;;;;5135646;27;20553;-66
2022/08/20 08:51:51;;;;;;;11.43;9.80;;;;;;;;;;5135119;27;20437;-66
2022/08/20 08:54:20;;;;;;;7.87;7.27;;;;;;;;;;5134852;27;20502;-66
2022/08/20 08:56:47;;;;;;;8.00;7.07;;;;;;;;;;5134979;27;20512;-66
2022/08/20 08:59:14;;;;;;;6.87;6.27;;;;;;;;;;5134952;27;20438;-66
2022/08/20 09:01:44;;;;;;;9.47;7.80;;;;;;;;;;5134609;27;20422;-66
2022/08/20 09:04:13;;;;;;;7.77;7.07;;;;;;;;;;5134485;27;20430;-66
2022/08/20 09:06:42;;;;;;;8.30;7.60;;;;;;;;;;5134591;27;20526;-66
2022/08/20 09:09:12;;;;;;;8.10;7.30;;;;;;;;;;5134374;27;20469;-66
2022/08/20 09:11:46;;;;;;;9.83;8.90;;;;;;;;;;5134577;27;20517;-66
2022/08/20 09:14:13;;;;;;;10.20;8.90;;;;;;;;;;5134747;27;20426;-66
2022/08/20 09:16:41;;;;;;;12.13;9.03;;;;;;;;;;5135186;27;20414;-65
2022/08/20 09:19:08;;;;;;;12.70;9.30;;;;;;;;;;5135024;27;20850;-66
2022/08/20 09:21:36;;;;;;;9.47;8.70;;;;;;;;;;5134255;27;20433;-66
2022/08/20 09:24:04;;;;;;;8.80;7.90;;;;;;;;;;5134914;27;20433;-65
2022/08/20 09:26:31;;;;;;;8.50;7.70;;;;;;;;;;5134024;27;20426;-65
2022/08/20 09:28:59;;;;;;;7.17;6.47;;;;;;;;;;5134329;27;20487;-66
2022/08/20 09:31:26;;;;;;;13.13;5.20;;;;;;;;;;5134546;28;20425;-65
2022/08/20 09:33:53;;;;;;;8.70;5.20;;;;;;;;;;5134542;28;20447;-66
2022/08/20 09:36:20;;;;;;;8.90;5.80;;;;;;;;;;5134579;28;20429;-66
2022/08/20 09:38:49;;;;;;;7.13;6.47;;;;;;;;;;5134568;28;20487;-66
2022/08/20 09:41:16;;;;;;;9.17;5.50;;;;;;;;;;5134452;28;20434;-66
2022/08/20 09:43:43;;;;;;;7.63;6.80;;;;;;;;;;5134065;28;20448;-65
2022/08/20 09:46:11;;;;;;;6.37;4.70;;;;;;;;;;5134652;28;20514;-66
2022/08/20 09:48:38;;;;;;;6.40;4.60;;;;;;;;;;5134376;28;20954;-66
2022/08/20 09:51:05;;;;;;;6.57;5.80;;;;;;;;;;5134484;28;20510;-66
2022/08/20 09:53:32;;;;;;;6.83;6.03;;;;;;;;;;5134309;28;20521;-65
2022/08/20 09:56:01;;;;;;;8.90;6.50;;;;;;;;;;5134264;28;20860;-65
2022/08/20 09:58:33;;;;;;;9.17;7.50;;;;;;;;;;5134723;28;20521;-66
2022/08/20 10:01:02;;;;;;;8.73;6.67;;;;;;;;;;5133891;28;20426;-66
2022/08/20 10:03:29;;;;;;;6.87;6.37;;;;;;;;;;5134654;28;20430;-65
2022/08/20 10:05:56;;;;;;;10.03;6.80;;;;;;;;;;5133846;28;20521;-65
2022/08/20 10:08:23;;;;;;;15.70;6.97;;;;;;;;;;5134343;28;20951;-66
2022/08/20 10:10:50;;;;;;;6.57;5.97;;;;;;;;;;5133983;28;20569;-65
2022/08/20 10:13:19;;;;;;;7.90;7.10;;;;;;;;;;5134879;28;20514;-65
2022/08/20 10:15:46;;;;;;;6.53;6.03;;;;;;;;;;5134021;28;21005;-65
2022/08/20 10:18:14;;;;;;;5.80;5.20;;;;;;;;;;5133746;28;20482;-65
2022/08/20 10:20:41;;;;;;;6.70;6.00;;;;;;;;;;5133978;28;20551;-66
2022/08/20 10:23:08;;;;;;;7.37;6.67;;;;;;;;;;5134295;28;20442;-65
2022/08/20 10:25:35;;;;;;;7.63;6.93;;;;;;;;;;5133949;28;20522;-65
2022/08/20 10:28:03;;;;;;;7.80;6.33;;;;;;;;;;5133890;28;20511;-65
2022/08/20 10:30:32;;;;;;;6.53;5.93;;;;;;;;;;5133387;28;20468;-65
2022/08/20 10:32:59;;;;;;;6.40;5.53;;;;;;;;;;5133519;28;20432;-65
2022/08/20 10:35:26;;;;;;;5.60;5.10;;;;;;;;;;5134002;28;20438;-66
2022/08/20 10:37:53;;;;;;;17.90;6.67;;;;;;;;;;5135538;27;20827;-65
2022/08/20 10:40:21;;;;;;;6.10;4.70;;;;;;;;;;5137481;27;20527;-66
2022/08/20 10:42:48;;;;;;;5.30;4.33;;;;;;;;;;5138071;27;20745;-65
2022/08/20 10:45:16;;;;;;;8.83;4.37;;;;;;;;;;5138060;27;20447;-65
2022/08/20 10:47:45;;;;;;;15.00;5.27;;;;;;;;;;5137032;27;20523;-66
2022/08/20 10:50:13;;;;;;;5.67;4.80;;;;;;;;;;5137409;27;20471;-64
2022/08/20 10:52:40;;;;;;;6.63;4.40;;;;;;;;;;5137278;27;20518;-65
2022/08/20 10:55:08;;;;;;;6.07;5.10;;;;;;;;;;5137349;27;20507;-65
2022/08/20 10:57:35;;;;;;;5.90;5.00;;;;;;;;;;5137081;27;20482;-65
2022/08/20 11:00:02;;;;;;;4.57;4.20;;;;;;;;;;5137473;27;20514;-65
2022/08/20 11:02:30;;;;;;;6.27;5.67;;;;;;;;;;5137193;27;20468;-65
2022/08/20 11:04:58;;;;;;;5.80;5.20;;;;;;;;;;5136840;27;20908;-65
2022/08/20 11:07:27;;;;;;;7.40;6.70;;;;;;;;;;5136857;27;20471;-66
2022/08/20 11:09:55;;;;;;;6.50;5.00;;;;;;;;;;5136621;27;20505;-65
2022/08/20 11:12:23;;;;;;;7.80;4.90;;;;;;;;;;5136641;27;20522;-65
2022/08/20 11:14:50;;;;;;;6.97;5.03;;;;;;;;;;5136860;27;20557;-65
2022/08/20 11:17:20;;;;;;;6.10;5.37;;;;;;;;;;5136995;27;20506;-65
2022/08/20 11:19:47;;;;;;;9.40;5.50;;;;;;;;;;5136613;27;20440;-65
2022/08/20 11:22:16;;;;;;;7.47;5.03;;;;;;;;;;5136818;27;20513;-65
2022/08/20 11:24:43;;;;;;;5.57;5.00;;;;;;;;;;5135645;27;20921;-65
2022/08/20 11:27:11;;;;;;;4.37;4.07;;;;;;;;;;5136390;27;20867;-65
2022/08/20 11:29:38;;;;;;;5.57;5.07;;;;;;;;;;5136426;27;20478;-65
2022/08/20 11:32:06;;;;;;;5.43;4.93;;;;;;;;;;5136791;27;20477;-65
2022/08/20 11:34:33;;;;;;;9.10;4.90;;;;;;;;;;5136806;27;20434;-65
2022/08/20 11:37:00;;;;;;;8.50;4.90;;;;;;;;;;5136622;27;20426;-65
2022/08/20 11:39:29;;;;;;;6.97;5.20;;;;;;;;;;5136447;27;20845;-65
2022/08/20 11:41:56;;;;;;;8.47;7.50;;;;;;;;;;5136005;27;20436;-65
2022/08/20 11:44:23;;;;;;;13.13;5.13;;;;;;;;;;5136029;27;20899;-65
2022/08/20 11:46:51;;;;;;;6.20;4.90;;;;;;;;;;5136264;27;20530;-65
2022/08/20 11:49:18;;;;;;;8.23;4.53;;;;;;;;;;5136031;27;20518;-65
2022/08/20 11:51:45;;;;;;;10.10;4.80;;;;;;;;;;5135669;27;20526;-65
2022/08/20 11:54:12;;;;;;;6.07;4.97;;;;;;;;;;5135635;27;20436;-65
2022/08/20 11:56:41;;;;;;;5.53;5.00;;;;;;;;;;5135745;27;20478;-65
2022/08/20 11:59:08;;;;;;;8.97;5.47;;;;;;;;;;5135736;27;20516;-65
2022/08/20 12:01:35;;;;;;;11.20;4.70;;;;;;;;;;5135907;27;20513;-65
2022/08/20 12:04:03;;;;;;;6.30;4.80;;;;;;;;;;5135782;27;20513;-65
2022/08/20 12:06:31;;;;;;;7.97;5.17;;;;;;;;;;5135922;27;20508;-66
2022/08/20 12:08:58;;;;;;;6.33;5.30;;;;;;;;;;5135725;27;20433;-68
2022/08/20 12:11:26;;;;;;;6.03;4.20;;;;;;;;;;5135504;27;20471;-69
2022/08/20 12:13:54;;;;;;;7.03;5.57;;;;;;;;;;5135925;27;20447;-65
2022/08/20 12:16:22;;;;;;;10.43;4.83;;;;;;;;;;5135389;27;20472;-65
2022/08/20 12:18:49;;;;;;;7.33;4.70;;;;;;;;;;5135654;27;20869;-65
2022/08/20 12:21:16;;;;;;;7.40;4.47;;;;;;;;;;5136005;27;20476;-66
2022/08/20 12:23:44;;;;;;;8.23;4.40;;;;;;;;;;5135610;27;20470;-66
2022/08/20 12:26:11;;;;;;;6.50;4.73;;;;;;;;;;5135205;27;20506;-71
2022/08/20 12:28:38;;;;;;;12.80;5.80;;;;;;;;;;5135497;27;20424;-67
2022/08/20 12:31:07;;;;;;;9.43;5.43;;;;;;;;;;5135594;27;20477;-66
2022/08/20 12:33:34;;;;;;;6.80;5.57;;;;;;;;;;5135328;27;20851;-67
2022/08/20 12:36:01;;;;;;;11.53;5.63;;;;;;;;;;5135295;27;20430;-67
2022/08/20 12:38:28;;;;;;;6.00;4.20;;;;;;;;;;5135149;27;20487;-67
2022/08/20 12:40:56;;;;;;;6.80;4.40;;;;;;;;;;5135033;27;20759;-67
2022/08/20 12:43:23;;;;;;;6.47;4.83;;;;;;;;;;5135339;27;20435;-67
2022/08/20 12:45:50;;;;;;;7.43;4.00;;;;;;;;;;5135184;27;20427;-67
2022/08/20 12:48:19;;;;;;;8.77;6.70;;;;;;;;;;5135037;27;20458;-67
2022/08/20 12:50:48;;;;;;;7.07;4.30;;;;;;;;;;5135488;27;20479;-67
2022/08/20 12:53:16;;;;;;;6.10;3.80;;;;;;;;;;5135186;27;20440;-67
2022/08/20 12:55:43;;;;;;;5.47;4.00;;;;;;;;;;5134782;27;20472;-67
2022/08/20 12:58:11;;;;;;;7.53;3.87;;;;;;;;;;5134851;27;20518;-67
2022/08/20 13:00:40;;;;;;;6.93;4.40;;;;;;;;;;5134200;27;20433;-68
2022/08/20 13:03:07;;;;;;;10.67;3.93;;;;;;;;;;5135094;27;20467;-67
2022/08/20 13:05:36;;;;;;;7.60;4.17;;;;;;;;;;5134505;27;20914;-68
2022/08/20 13:08:06;;;;;;;7.43;4.77;;;;;;;;;;5133380;27;20433;-68
2022/08/20 13:10:35;;;;;;;8.20;4.17;;;;;;;;;;5134355;27;20468;-67
2022/08/20 13:13:03;;;;;;;6.47;4.33;;;;;;;;;;5133438;27;20532;-68
2022/08/20 13:15:30;;;;;;;6.10;3.60;;;;;;;;;;5134433;27;20460;-69
2022/08/20 13:17:58;;;;;;;4.67;3.37;;;;;;;;;;5133647;27;20434;-68
2022/08/20 13:20:26;;;;;;;6.70;3.83;;;;;;;;;;5134216;27;20429;-68
2022/08/20 13:22:55;;;;;;;9.80;3.83;;;;;;;;;;5134024;27;20429;-67
2022/08/20 13:25:22;;;;;;;7.90;4.07;;;;;;;;;;5134094;27;20460;-68
2022/08/20 13:27:50;;;;;;;7.10;3.27;;;;;;;;;;5134109;27;20846;-68
2022/08/20 13:30:19;;;;;;;4.50;3.00;;;;;;;;;;5133848;27;20610;-67
2022/08/20 13:32:46;;;;;;;5.67;3.60;;;;;;;;;;5133963;28;20472;-68
2022/08/20 13:35:13;;;;;;;5.47;2.57;;;;;;;;;;5134075;28;20441;-68
2022/08/20 13:37:41;;;;;;;7.63;2.87;;;;;;;;;;5133487;28;20511;-68
2022/08/20 13:40:11;;;;;;;17.40;4.20;;;;;;;;;;5134232;28;20797;-67
2022/08/20 13:42:38;;;;;;;4.37;3.20;;;;;;;;;;5134248;28;20514;-68
2022/08/20 13:45:07;;;;;;;8.60;5.60;;;;;;;;;;5133886;28;20484;-67
2022/08/20 13:47:35;;;;;;;11.67;3.50;;;;;;;;;;5134032;28;20447;-67
2022/08/20 13:50:03;;;;;;;4.00;3.20;;;;;;;;;;5133816;28;21022;-67
2022/08/20 13:52:31;;;;;;;4.70;3.20;;;;;;;;;;5134556;28;20438;-67
2022/08/20 13:54:58;;;;;;;5.80;3.17;;;;;;;;;;5133675;28;21006;-67
2022/08/20 13:57:27;;;;;;;6.10;3.13;;;;;;;;;;5133234;28;20519;-68
2022/08/20 13:59:56;;;;;;;7.83;3.50;;;;;;;;;;5133763;28;20434;-68
2022/08/20 14:02:23;;;;;;;7.73;3.30;;;;;;;;;;5134650;28;20442;-67
2022/08/20 14:04:51;;;;;;;12.43;3.43;;;;;;;;;;5134040;28;20517;-68
2022/08/20 14:07:20;;;;;;;5.73;3.20;;;;;;;;;;5133915;28;20440;-68
2022/08/20 14:09:49;;;;;;;10.90;3.60;;;;;;;;;;5133917;28;20521;-68
2022/08/20 14:12:16;;;;;;;9.73;3.40;;;;;;;;;;5136333;27;20439;-67
2022/08/20 14:14:45;;;;;;;7.27;3.27;;;;;;;;;;5137825;27;20468;-67
2022/08/20 14:17:16;;;;;;;7.33;3.63;;;;;;;;;;5137127;27;20485;-67
2022/08/20 14:19:44;;;;;;;11.03;4.60;;;;;;;;;;5137548;27;20433;-67
2022/08/20 14:22:11;;;;;;;10.10;5.27;;;;;;;;;;5137861;27;20843;-67
2022/08/20 14:24:38;;;;;;;5.50;3.50;;;;;;;;;;5137745;27;20447;-67
2022/08/20 14:27:05;;;;;;;8.80;3.53;;;;;;;;;;5138168;27;20437;-67
2022/08/20 14:29:33;;;;;;;5.80;3.03;;;;;;;;;;5137910;27;20528;-67
2022/08/20 14:32:02;;;;;;;10.73;5.40;;;;;;;;;;5137623;27;20564;-67
2022/08/20 14:34:29;;;;;;;8.27;3.73;;;;;;;;;;5137307;27;20976;-68
2022/08/20 14:36:57;;;;;;;12.00;3.87;;;;;;;;;;5136844;27;21006;-67